createdAt,value
2018-08-10T00:00:14.200Z,76.10
2018-08-10T00:02:41.573Z,76.10
2018-08-10T00:05:09.615Z,76.00
2018-08-10T00:07:37.381Z,76.20
2018-08-10T00:10:06.498Z,76.30
2018-08-10T00:12:33.827Z,76.10
2018-08-10T00:15:01.159Z,76.10
2018-08-10T00:17:28.494Z,77.10
2018-08-10T00:19:55.807Z,76.60
2018-08-10T00:22:23.106Z,76.70
2018-08-10T00:24:50.433Z,77.00
2018-08-10T00:27:17.974Z,77.10
2018-08-10T00:29:45.291Z,77.10
2018-08-10T00:32:12.631Z,77.30
2018-08-10T00:34:40.006Z,77.10
2018-08-10T00:37:07.314Z,77.00
2018-08-10T00:39:34.633Z,76.60
2018-08-10T00:42:02.024Z,76.60
2018-08-10T00:44:29.352Z,76.50
2018-08-10T00:46:56.705Z,76.60
2018-08-10T00:49:24.004Z,76.70
2018-08-10T00:51:51.366Z,76.60
2018-08-10T00:54:18.675Z,76.70
2018-08-10T00:56:46.011Z,76.60
2018-08-10T00:59:13.487Z,76.50
2018-08-10T01:01:41.027Z,76.50
2018-08-10T01:04:08.374Z,76.60
2018-08-10T01:06:36.102Z,76.70
2018-08-10T01:09:07.031Z,76.70
2018-08-10T01:11:34.347Z,76.90
2018-08-10T01:14:01.745Z,76.80
2018-08-10T01:16:29.049Z,77.00
2018-08-10T01:18:56.386Z,77.00
2018-08-10T01:23:57.856Z,77.10
2018-08-10T01:26:25.170Z,77.10
2018-08-10T01:28:52.580Z,77.10
2018-08-10T01:31:19.833Z,77.20
2018-08-10T01:33:47.319Z,77.20
2018-08-10T01:36:14.614Z,77.20
2018-08-10T01:38:41.941Z,77.20
2018-08-10T01:41:09.278Z,77.40
2018-08-10T01:43:36.559Z,77.40
2018-08-10T01:46:03.916Z,77.40
2018-08-10T01:48:31.231Z,78.20
2018-08-10T01:50:58.782Z,77.50
2018-08-10T01:53:26.069Z,77.50
2018-08-10T01:55:53.396Z,77.60
2018-08-10T01:58:20.714Z,77.60
2018-08-10T02:00:48.076Z,77.60
2018-08-10T02:03:15.650Z,77.60
2018-08-10T02:05:42.975Z,77.60
2018-08-10T02:08:10.274Z,77.60
2018-08-10T02:13:11.586Z,77.60
2018-08-10T02:15:38.902Z,77.50
2018-08-10T02:18:06.194Z,77.40
2018-08-10T02:20:33.678Z,77.40
2018-08-10T02:23:00.967Z,77.50
2018-08-10T02:25:28.307Z,77.50
2018-08-10T02:28:02.380Z,78.00
2018-08-10T02:30:29.675Z,77.50
2018-08-10T02:32:56.998Z,77.60
2018-08-10T02:35:24.337Z,77.70
2018-08-10T02:37:51.937Z,77.70
2018-08-10T02:40:20.601Z,77.70
2018-08-10T02:42:48.794Z,77.80
2018-08-10T02:45:16.456Z,77.90
2018-08-10T02:47:44.224Z,78.00
2018-08-10T02:52:38.944Z,77.60
2018-08-10T02:55:06.997Z,78.80
2018-08-10T02:57:34.344Z,78.30
2018-08-10T03:00:01.708Z,78.30
2018-08-10T03:02:29.016Z,78.30
2018-08-10T03:04:56.395Z,78.30
2018-08-10T03:07:23.726Z,78.40
2018-08-10T03:09:51.142Z,78.40
2018-08-10T03:12:18.427Z,78.40
2018-08-10T03:14:45.719Z,78.40
2018-08-10T03:17:19.845Z,78.50
2018-08-10T03:19:47.136Z,78.50
2018-08-10T03:22:14.541Z,78.50
2018-08-10T03:24:41.783Z,78.70
2018-08-10T03:27:09.275Z,78.80
2018-08-10T03:29:36.738Z,78.70
2018-08-10T03:32:04.504Z,78.80
2018-08-10T03:34:31.846Z,78.80
2018-08-10T03:36:59.284Z,78.90
2018-08-10T03:39:26.611Z,78.90
2018-08-10T03:41:53.956Z,78.90
2018-08-10T03:44:21.226Z,78.80
2018-08-10T03:46:48.532Z,78.80
2018-08-10T03:49:15.918Z,78.70
2018-08-10T03:51:43.243Z,78.80
2018-08-10T03:54:10.570Z,78.80
2018-08-10T03:56:38.123Z,78.80
2018-08-10T03:59:05.439Z,78.90
2018-08-10T04:01:32.760Z,79.00
2018-08-10T04:04:00.103Z,79.10
2018-08-10T04:06:27.420Z,79.10
2018-08-10T04:08:54.747Z,79.00
2018-08-10T04:11:22.034Z,79.20
2018-08-10T04:13:49.607Z,79.10
2018-08-10T04:16:17.042Z,79.10
2018-08-10T04:18:44.385Z,79.20
2018-08-10T04:21:11.703Z,79.30
2018-08-10T04:23:39.015Z,79.40
2018-08-10T04:26:06.378Z,79.50
2018-08-10T04:28:33.721Z,79.50
2018-08-10T04:31:01.207Z,79.60
2018-08-10T04:33:28.542Z,79.60
2018-08-10T04:35:55.874Z,79.70
2018-08-10T04:38:23.212Z,79.80
2018-08-10T04:40:50.546Z,80.00
2018-08-10T04:43:17.875Z,80.10
2018-08-10T04:45:45.198Z,80.20
2018-08-10T04:48:12.547Z,80.20
2018-08-10T04:50:39.819Z,80.50
2018-08-10T04:53:07.138Z,80.40
2018-08-10T04:55:34.874Z,80.50
2018-08-10T04:58:02.055Z,80.60
2018-08-10T05:00:29.362Z,80.70
2018-08-10T05:02:56.663Z,80.80
2018-08-10T05:05:23.971Z,80.80
2018-08-10T05:07:51.283Z,81.00
2018-08-10T05:10:18.599Z,80.90
2018-08-10T05:12:45.897Z,81.00
2018-08-10T05:15:20.048Z,81.00
2018-08-10T05:17:47.403Z,81.00
2018-08-10T05:20:14.720Z,81.00
2018-08-10T05:22:42.304Z,81.10
2018-08-10T05:25:16.459Z,81.10
2018-08-10T05:27:43.794Z,81.10
2018-08-10T05:30:11.535Z,81.80
2018-08-10T05:32:39.245Z,81.00
2018-08-10T05:35:07.677Z,81.10
2018-08-10T05:37:35.005Z,81.10
2018-08-10T05:40:02.348Z,81.20
2018-08-10T05:42:29.680Z,81.20
2018-08-10T05:44:57.079Z,81.30
2018-08-10T05:47:24.385Z,81.20
2018-08-10T05:49:51.678Z,81.00
2018-08-10T05:52:18.999Z,82.40
2018-08-10T05:54:46.307Z,84.40
2018-08-10T05:57:13.646Z,86.30
2018-08-10T05:59:40.966Z,86.80
2018-08-10T06:02:08.243Z,86.50
2018-08-10T06:04:35.559Z,87.00
2018-08-10T06:07:02.939Z,87.00
2018-08-10T06:09:30.296Z,86.50
2018-08-10T06:11:57.616Z,85.90
2018-08-10T06:14:24.943Z,85.70
2018-08-10T06:16:52.251Z,84.30
2018-08-10T06:19:19.610Z,83.20
2018-08-10T06:21:46.895Z,81.60
2018-08-10T06:24:14.457Z,80.90
2018-08-10T06:26:41.774Z,80.50
2018-08-10T06:29:09.087Z,79.50
2018-08-10T06:31:36.418Z,78.60
2018-08-10T06:34:03.816Z,78.30
2018-08-10T06:36:31.079Z,77.00
2018-08-10T06:38:58.414Z,75.20
2018-08-10T06:41:25.950Z,74.70
2018-08-10T06:43:53.278Z,72.60
2018-08-10T06:46:20.644Z,72.20
2018-08-10T06:48:47.984Z,72.60
2018-08-10T06:51:15.503Z,72.30
2018-08-10T06:53:42.844Z,73.20
2018-08-10T06:56:10.268Z,73.30
2018-08-10T06:58:37.510Z,73.10
2018-08-10T07:01:05.182Z,72.10
2018-08-10T07:03:32.455Z,72.50
2018-08-10T07:05:59.794Z,72.90
2018-08-10T07:08:27.159Z,73.40
2018-08-10T07:10:54.462Z,72.80
2018-08-10T07:13:22.093Z,73.40
2018-08-10T07:15:49.263Z,74.00
2018-08-10T07:18:16.597Z,73.90
2018-08-10T07:20:43.902Z,72.20
2018-08-10T07:23:11.251Z,72.60
2018-08-10T07:25:38.603Z,72.40
2018-08-10T07:28:05.939Z,70.20
2018-08-10T07:30:33.239Z,69.90
2018-08-10T07:33:00.611Z,68.50
2018-08-10T07:35:27.952Z,68.10
2018-08-10T07:37:58.301Z,67.60
2018-08-10T07:40:25.666Z,67.30
2018-08-10T07:42:53.015Z,67.40
2018-08-10T07:45:20.323Z,67.60
2018-08-10T07:47:47.662Z,67.70
2018-08-10T07:50:14.975Z,68.40
2018-08-10T07:52:42.301Z,69.10
2018-08-10T07:55:09.854Z,68.90
2018-08-10T07:57:37.203Z,68.50
2018-08-10T08:00:05.220Z,67.90
2018-08-10T08:02:32.574Z,67.40
2018-08-10T08:04:59.976Z,67.40
2018-08-10T08:07:27.322Z,66.80
2018-08-10T08:09:54.653Z,67.80
2018-08-10T08:12:22.001Z,67.30
2018-08-10T08:14:49.357Z,66.30
2018-08-10T08:17:16.712Z,65.90
2018-08-10T08:19:45.332Z,66.80
2018-08-10T08:22:19.884Z,67.20
2018-08-10T08:24:47.271Z,67.30
2018-08-10T08:27:16.024Z,65.80
2018-08-10T08:29:43.355Z,65.80
2018-08-10T08:32:11.041Z,66.50
2018-08-10T08:34:38.450Z,65.20
2018-08-10T08:37:06.239Z,65.70
2018-08-10T08:40:43.780Z,65.10
2018-08-10T08:43:11.397Z,64.60
2018-08-10T08:46:09.648Z,65.80
2018-08-10T08:48:39.901Z,64.20
2018-08-10T08:51:09.407Z,64.50
2018-08-10T08:53:37.168Z,64.10
2018-08-10T08:56:10.779Z,64.40
2018-08-10T08:58:38.647Z,63.70
2018-08-10T09:01:07.454Z,62.90
2018-08-10T09:03:46.257Z,62.50
2018-08-10T09:06:13.803Z,61.90
2018-08-10T09:09:45.542Z,62.50
2018-08-10T09:12:12.884Z,62.30
2018-08-10T09:14:46.821Z,61.00
2018-08-10T09:17:14.309Z,60.50
2018-08-10T09:19:41.948Z,60.20
2018-08-10T09:22:09.724Z,59.80
2018-08-10T09:24:37.092Z,59.90
2018-08-10T09:27:04.671Z,60.10
2018-08-10T09:29:32.823Z,59.20
2018-08-10T09:32:00.176Z,58.10
2018-08-10T09:34:28.314Z,58.40
2018-08-10T09:36:55.592Z,57.10
2018-08-10T09:39:22.956Z,56.10
2018-08-10T09:41:50.370Z,55.60
2018-08-10T09:44:17.860Z,56.30
2018-08-10T09:46:45.229Z,55.00
2018-08-10T09:49:12.655Z,55.30
2018-08-10T09:51:40.033Z,56.10
2018-08-10T09:54:07.717Z,55.50
2018-08-10T09:56:35.104Z,53.70
2018-08-10T09:59:02.483Z,54.00
2018-08-10T10:01:34.400Z,54.30
2018-08-10T10:04:01.747Z,54.30
2018-08-10T10:06:29.087Z,52.60
2018-08-10T10:08:56.744Z,53.00
2018-08-10T10:11:24.083Z,52.70
2018-08-10T10:13:51.502Z,52.30
2018-08-10T10:16:18.871Z,51.80
2018-08-10T10:18:46.454Z,51.90
2018-08-10T10:21:13.775Z,51.60
2018-08-10T10:23:41.111Z,52.20
2018-08-10T10:26:08.480Z,52.30
2018-08-10T10:28:35.803Z,52.20
2018-08-10T10:33:57.296Z,52.50
2018-08-10T10:36:24.621Z,51.40
2018-08-10T10:38:52.017Z,51.00
2018-08-10T10:41:19.377Z,50.40
2018-08-10T10:43:46.786Z,50.90
2018-08-10T10:46:14.485Z,51.30
2018-08-10T10:48:41.806Z,49.80
2018-08-10T10:51:09.191Z,49.00
2018-08-10T10:53:36.514Z,49.60
2018-08-10T10:56:03.856Z,49.60
2018-08-10T10:58:31.237Z,50.40
2018-08-10T11:00:58.617Z,49.70
2018-08-10T11:03:26.163Z,49.50
2018-08-10T11:05:53.487Z,49.40
2018-08-10T11:08:20.839Z,49.90
2018-08-10T11:10:48.439Z,49.00
2018-08-10T11:13:15.804Z,49.90
2018-08-10T11:15:43.155Z,49.20
2018-08-10T11:18:10.553Z,49.20
2018-08-10T11:20:37.855Z,48.80
2018-08-10T11:23:05.227Z,48.30
2018-08-10T11:25:32.615Z,48.50
2018-08-10T11:27:59.966Z,47.90
2018-08-10T11:30:27.329Z,47.20
2018-08-10T11:32:54.671Z,47.20
2018-08-10T11:35:21.993Z,46.00
2018-08-10T11:37:49.354Z,46.70
2018-08-10T11:40:17.011Z,46.60
2018-08-10T11:42:44.334Z,47.00
2018-08-10T11:45:15.384Z,47.30
2018-08-10T11:47:42.774Z,47.10
2018-08-10T11:50:10.153Z,45.40
2018-08-10T11:52:37.569Z,45.30
2018-08-10T11:55:05.847Z,44.80
2018-08-10T11:57:33.325Z,44.60
2018-08-10T12:00:00.624Z,45.30
2018-08-10T12:02:27.959Z,45.70
2018-08-10T12:04:55.272Z,46.60
2018-08-10T12:07:22.803Z,46.50
2018-08-10T12:09:50.092Z,47.20
2018-08-10T12:12:17.428Z,47.80
2018-08-10T12:14:44.764Z,47.80
2018-08-10T12:17:12.113Z,47.60
2018-08-10T12:19:39.524Z,47.70
2018-08-10T12:22:06.844Z,48.00
2018-08-10T12:24:34.254Z,48.40
2018-08-10T12:27:01.822Z,48.20
2018-08-10T12:29:29.181Z,48.70
2018-08-10T12:31:56.507Z,48.40
2018-08-10T12:34:23.848Z,48.30
2018-08-10T12:36:51.177Z,48.10
2018-08-10T12:39:18.525Z,48.10
2018-08-10T12:41:46.023Z,47.60
2018-08-10T12:44:13.369Z,47.10
2018-08-10T12:46:40.779Z,46.80
2018-08-10T12:49:08.571Z,45.20
2018-08-10T12:51:36.099Z,43.60
2018-08-10T12:54:03.500Z,43.90
2018-08-10T12:56:30.848Z,43.60
2018-08-10T12:58:58.156Z,44.40
2018-08-10T13:01:25.505Z,44.20
2018-08-10T13:03:53.174Z,43.00
2018-08-10T13:06:20.500Z,42.90
2018-08-10T13:08:47.872Z,42.00
2018-08-10T13:11:15.259Z,42.90
2018-08-10T13:13:42.611Z,42.00
2018-08-10T13:16:09.978Z,42.20
2018-08-10T13:18:37.323Z,42.70
2018-08-10T13:21:04.668Z,41.80
2018-08-10T13:23:32.055Z,41.80
2018-08-10T13:25:59.387Z,42.00
2018-08-10T13:28:26.700Z,41.40
2018-08-10T13:30:54.008Z,41.80
2018-08-10T13:33:21.439Z,41.40
2018-08-10T13:35:48.799Z,40.70
2018-08-10T13:38:16.117Z,41.50
2018-08-10T13:40:43.523Z,41.20
2018-08-10T13:43:10.872Z,40.10
2018-08-10T13:45:38.189Z,40.20
2018-08-10T13:48:05.847Z,40.20
2018-08-10T13:50:33.178Z,40.60
2018-08-10T13:53:00.503Z,41.00
2018-08-10T13:55:27.827Z,39.90
2018-08-10T13:57:55.155Z,39.50
2018-08-10T14:00:23.558Z,38.90
2018-08-10T14:02:52.378Z,39.70
2018-08-10T14:05:20.215Z,38.90
2018-08-10T14:07:47.903Z,38.70
2018-08-10T14:10:15.547Z,38.20
2018-08-10T14:12:43.206Z,38.60
2018-08-10T14:15:11.078Z,39.90
2018-08-10T14:17:38.428Z,39.90
2018-08-10T14:20:41.605Z,40.50
2018-08-10T14:23:08.943Z,37.50
2018-08-10T14:25:36.260Z,37.90
2018-08-10T14:28:03.673Z,38.00
2018-08-10T14:30:30.963Z,38.10
2018-08-10T14:32:58.323Z,37.90
2018-08-10T14:35:25.700Z,37.40
2018-08-10T14:37:53.044Z,36.20
2018-08-10T14:40:20.383Z,37.30
2018-08-10T14:42:47.699Z,38.50
2018-08-10T14:45:15.985Z,38.10
2018-08-10T14:47:43.339Z,38.50
2018-08-10T14:50:12.227Z,38.50
2018-08-10T14:52:39.748Z,39.00
2018-08-10T14:55:09.776Z,39.20
2018-08-10T14:57:37.159Z,40.50
2018-08-10T15:00:08.723Z,40.30
2018-08-10T15:02:36.100Z,39.50
2018-08-10T15:05:04.242Z,39.10
2018-08-10T15:07:31.579Z,39.60
2018-08-10T15:09:59.018Z,39.20
2018-08-10T15:12:26.594Z,39.90
2018-08-10T15:14:53.785Z,39.60
2018-08-10T15:17:21.100Z,40.40
2018-08-10T15:19:48.455Z,40.10
2018-08-10T15:22:15.837Z,40.40
2018-08-10T15:24:43.176Z,40.20
2018-08-10T15:27:10.510Z,40.20
2018-08-10T15:29:37.863Z,41.00
2018-08-10T15:32:05.215Z,40.10
2018-08-10T15:34:32.556Z,40.10
2018-08-10T15:36:59.894Z,39.80
2018-08-10T15:39:27.214Z,39.70
2018-08-10T15:41:54.536Z,39.40
2018-08-10T15:44:21.877Z,39.70
2018-08-10T15:46:49.243Z,40.10
2018-08-10T15:49:16.582Z,39.00
2018-08-10T15:51:43.933Z,37.50
2018-08-10T15:54:11.287Z,38.40
2018-08-10T15:56:38.618Z,38.20
2018-08-10T15:59:06.134Z,38.50
2018-08-10T16:01:33.559Z,37.60
2018-08-10T16:04:00.889Z,38.00
2018-08-10T16:06:28.262Z,38.60
2018-08-10T16:08:55.581Z,39.40
2018-08-10T16:11:22.907Z,39.20
2018-08-10T16:13:50.351Z,39.40
2018-08-10T16:16:17.655Z,38.70
2018-08-10T16:18:45.174Z,39.10
2018-08-10T16:21:12.562Z,38.70
2018-08-10T16:23:39.890Z,38.30
2018-08-10T16:26:07.295Z,38.50
2018-08-10T16:28:34.611Z,38.70
2018-08-10T16:31:01.919Z,38.60
2018-08-10T16:33:29.254Z,38.70
2018-08-10T16:35:56.603Z,38.30
2018-08-10T16:38:23.949Z,38.10
2018-08-10T16:40:51.295Z,37.80
2018-08-10T16:43:18.623Z,38.20
2018-08-10T16:45:46.004Z,38.60
2018-08-10T16:48:13.311Z,37.20
2018-08-10T16:50:40.681Z,37.60
2018-08-10T16:53:08.035Z,36.50
2018-08-10T16:55:35.356Z,36.80
2018-08-10T16:58:02.731Z,36.70
2018-08-10T17:00:30.112Z,36.20
2018-08-10T17:02:57.459Z,36.90
2018-08-10T17:05:25.069Z,36.50
2018-08-10T17:07:52.279Z,36.70
2018-08-10T17:10:19.624Z,36.80
2018-08-10T17:12:47.033Z,36.90
2018-08-10T17:15:16.269Z,35.70
2018-08-10T17:17:44.554Z,35.70
2018-08-10T17:20:12.511Z,35.40
2018-08-10T17:22:40.362Z,35.20
2018-08-10T17:25:08.954Z,36.10
2018-08-10T17:27:36.531Z,36.20
2018-08-10T17:30:05.753Z,36.60
2018-08-10T17:32:33.133Z,36.90
2018-08-10T17:35:00.548Z,37.00
2018-08-10T17:37:27.890Z,36.80
2018-08-10T17:39:55.333Z,37.00
2018-08-10T17:42:22.666Z,36.60
2018-08-10T17:44:49.992Z,36.90
2018-08-10T17:47:17.340Z,37.20
2018-08-10T17:49:44.660Z,37.20
2018-08-10T17:52:12.004Z,37.10
2018-08-10T17:54:39.350Z,37.20
2018-08-10T17:57:06.662Z,36.80
2018-08-10T17:59:34.037Z,36.70
2018-08-10T18:02:01.399Z,36.40
2018-08-10T18:04:29.016Z,36.40
2018-08-10T18:06:56.351Z,36.60
2018-08-10T18:09:23.727Z,36.30
2018-08-10T18:11:51.267Z,36.60
2018-08-10T18:14:18.596Z,36.60
2018-08-10T18:16:45.984Z,36.60
2018-08-10T18:19:13.336Z,36.60
2018-08-10T18:21:40.737Z,37.00
2018-08-10T18:24:08.118Z,36.50
2018-08-10T18:26:35.460Z,36.80
2018-08-10T18:29:02.831Z,37.00
2018-08-10T18:31:30.253Z,37.00
2018-08-10T18:33:57.610Z,37.20
2018-08-10T18:36:24.945Z,37.70
2018-08-10T18:38:52.287Z,37.80
2018-08-10T18:41:19.628Z,37.90
2018-08-10T18:43:46.971Z,38.20
2018-08-10T18:46:14.537Z,38.30
2018-08-10T18:48:41.877Z,38.10
2018-08-10T18:51:09.215Z,37.80
2018-08-10T18:53:36.773Z,38.30
2018-08-10T18:56:04.894Z,38.00
2018-08-10T18:58:32.216Z,38.40
2018-08-10T19:00:59.788Z,38.50
2018-08-10T19:03:27.147Z,38.70
2018-08-10T19:05:54.587Z,38.70
2018-08-10T19:08:21.908Z,38.50
2018-08-10T19:10:49.266Z,38.90
2018-08-10T19:13:16.826Z,39.20
2018-08-10T19:15:44.200Z,39.10
2018-08-10T19:18:11.579Z,39.10
2018-08-10T19:20:38.916Z,39.20
2018-08-10T19:23:06.259Z,39.40
2018-08-10T19:25:33.544Z,39.50
2018-08-10T19:28:00.912Z,39.50
2018-08-10T19:30:28.295Z,39.60
2018-08-10T19:32:55.633Z,39.70
2018-08-10T19:35:23.186Z,39.70
2018-08-10T19:37:50.546Z,40.00
2018-08-10T19:40:18.789Z,40.60
2018-08-10T19:42:46.242Z,40.90
2018-08-10T19:45:14.207Z,40.60
2018-08-10T19:47:41.630Z,40.80
2018-08-10T19:50:10.455Z,41.00
2018-08-10T19:52:37.875Z,41.00
2018-08-10T19:55:06.426Z,40.90
2018-08-10T19:57:34.118Z,41.00
2018-08-10T20:00:01.519Z,41.00
2018-08-10T20:02:28.977Z,40.70
2018-08-10T20:04:56.342Z,40.90
2018-08-10T20:07:23.728Z,41.00
2018-08-10T20:09:51.134Z,40.80
2018-08-10T20:12:18.826Z,40.60
2018-08-10T20:14:46.257Z,40.60
2018-08-10T20:17:13.713Z,40.60
2018-08-10T20:19:41.277Z,40.60
2018-08-10T20:22:14.251Z,40.30
2018-08-10T20:24:41.693Z,40.80
2018-08-10T20:27:09.926Z,40.80
2018-08-10T20:29:38.055Z,40.90
2018-08-10T20:32:05.563Z,40.70
2018-08-10T20:34:33.384Z,40.80
2018-08-10T20:37:01.043Z,40.90
2018-08-10T20:39:28.388Z,40.80
2018-08-10T20:41:55.797Z,40.80
2018-08-10T20:44:23.138Z,40.60
2018-08-10T20:46:50.535Z,40.80
2018-08-10T20:49:18.124Z,41.30
2018-08-10T20:51:45.495Z,41.10
2018-08-10T20:54:12.871Z,41.30
2018-08-10T20:56:40.220Z,41.30
2018-08-10T20:59:07.586Z,41.30
2018-08-10T21:01:34.965Z,41.30
2018-08-10T21:04:02.319Z,41.20
2018-08-10T21:06:29.689Z,41.40
2018-08-10T21:08:56.997Z,41.30
2018-08-10T21:11:24.352Z,41.60
2018-08-10T21:13:51.782Z,41.80
2018-08-10T21:16:19.160Z,41.80
2018-08-10T21:18:46.501Z,42.20
2018-08-10T21:21:13.848Z,42.40
2018-08-10T21:23:41.173Z,42.80
2018-08-10T21:26:08.482Z,43.10
2018-08-10T21:28:35.833Z,43.20
2018-08-10T21:31:03.202Z,43.60
2018-08-10T21:33:30.550Z,43.80
2018-08-10T21:35:57.868Z,44.10
2018-08-10T21:38:25.206Z,44.60
2018-08-10T21:40:52.528Z,45.10
2018-08-10T21:43:19.967Z,44.60
2018-08-10T21:45:47.276Z,44.80
2018-08-10T21:48:14.840Z,45.10
2018-08-10T21:50:42.151Z,45.20
2018-08-10T21:53:09.970Z,45.40
2018-08-10T21:55:37.514Z,45.70
2018-08-10T21:58:04.863Z,46.00
2018-08-10T22:00:57.299Z,46.10
2018-08-10T22:03:24.610Z,46.40
2018-08-10T22:05:51.924Z,46.80
2018-08-10T22:08:21.411Z,47.10
2018-08-10T22:10:49.088Z,47.30
2018-08-10T22:13:22.481Z,47.50
2018-08-10T22:15:55.639Z,47.70
2018-08-10T22:18:28.616Z,47.90
2018-08-10T22:20:56.423Z,48.10
2018-08-10T22:23:24.382Z,48.40
2018-08-10T22:25:51.799Z,48.70
2018-08-10T22:28:19.138Z,48.80
2018-08-10T22:30:46.552Z,49.20
2018-08-10T22:33:14.145Z,49.40
2018-08-10T22:38:16.103Z,50.10
2018-08-10T22:40:43.478Z,50.70
2018-08-10T22:43:11.312Z,51.70
2018-08-10T22:45:39.240Z,53.10
2018-08-10T22:48:06.672Z,53.50
2018-08-10T22:50:33.988Z,54.30
2018-08-10T22:53:01.347Z,54.70
2018-08-10T22:55:28.710Z,55.10
2018-08-10T22:57:56.162Z,55.40
2018-08-10T23:00:23.545Z,56.00
2018-08-10T23:02:50.928Z,56.60
2018-08-10T23:05:18.252Z,57.10
2018-08-10T23:07:45.621Z,57.10
2018-08-10T23:10:13.646Z,57.20
2018-08-10T23:12:41.930Z,57.40
2018-08-10T23:15:09.682Z,58.10
2018-08-10T23:17:37.387Z,58.60
2018-08-10T23:20:06.696Z,58.70
2018-08-10T23:22:34.120Z,59.20
2018-08-10T23:25:01.467Z,59.40
2018-08-10T23:27:28.799Z,59.50
2018-08-10T23:29:56.110Z,60.10
2018-08-10T23:32:23.622Z,60.10
2018-08-10T23:34:50.920Z,60.50
2018-08-10T23:37:18.216Z,60.50
2018-08-10T23:39:45.787Z,62.10
2018-08-10T23:42:13.100Z,61.80
2018-08-10T23:44:40.431Z,62.10
2018-08-10T23:47:07.755Z,62.20
2018-08-10T23:49:35.119Z,62.70
2018-08-10T23:52:02.434Z,62.90
2018-08-10T23:54:29.739Z,62.90
2018-08-10T23:56:57.055Z,63.50
2018-08-10T23:59:24.399Z,63.80
